Time;durP1;ratioP1;P1;durP2;ratioP2;P2;SDS_P1;SDS_P2;PMS_P1;PMS_P2;Temp;Humidity;BMP_temperature;BMP_pressure;BME280_temperature;BME280_humidity;BME280_pressure;Samples;Min_cycle;Max_cycle;Signal;HPM_P1;HPM_P2
2022/04/30 00:02:14;;;;;;;19.40;11.98;;;17.80;51.90;;;;;;4950757;28;93088;-64
2022/04/30 00:04:42;;;;;;;16.75;11.02;;;17.80;51.90;;;;;;4951127;28;93093;-64
2022/04/30 00:07:09;;;;;;;18.60;11.18;;;17.70;51.80;;;;;;4949331;28;96452;-64
2022/04/30 00:09:36;;;;;;;18.77;11.82;;;17.70;51.80;;;;;;4950356;28;96241;-64
2022/04/30 00:12:02;;;;;;;16.00;11.23;;;17.80;51.80;;;;;;4950544;28;92724;-65
2022/04/30 00:14:29;;;;;;;18.20;11.13;;;17.70;51.80;;;;;;4951517;28;92994;-66
2022/04/30 00:16:56;;;;;;;17.10;11.18;;;17.70;51.90;;;;;;4950869;28;94648;-65
2022/04/30 00:19:22;;;;;;;15.45;10.55;;;17.70;51.80;;;;;;4949614;28;93702;-65
2022/04/30 00:21:49;;;;;;;16.40;10.27;;;17.70;51.80;;;;;;4951514;28;92901;-65
2022/04/30 00:24:15;;;;;;;16.38;10.80;;;17.70;51.80;;;;;;4952102;28;91772;-65
2022/04/30 00:26:41;;;;;;;15.05;10.45;;;17.70;51.80;;;;;;4951144;28;94332;-66
2022/04/30 00:29:07;;;;;;;16.95;10.63;;;17.70;51.80;;;;;;4950492;28;94261;-64
2022/04/30 00:31:34;;;;;;;14.73;9.60;;;17.70;51.80;;;;;;4950371;28;94896;-64
2022/04/30 00:34:01;;;;;;;16.10;9.68;;;17.70;51.80;;;;;;4950894;28;92727;-64
2022/04/30 00:36:27;;;;;;;14.57;10.20;;;17.70;51.80;;;;;;4951468;28;94061;-64
2022/04/30 00:38:52;;;;;;;16.05;10.07;;;17.60;51.70;;;;;;4949866;28;92912;-64
2022/04/30 00:41:19;;;;;;;15.63;9.35;;;17.60;51.80;;;;;;4951032;28;92748;-64
2022/04/30 00:43:45;;;;;;;14.75;9.30;;;17.70;51.80;;;;;;4950272;28;93075;-64
2022/04/30 00:46:15;;;;;;;14.25;9.43;;;17.60;51.70;;;;;;4951468;28;94402;-64
2022/04/30 00:48:42;;;;;;;13.45;8.57;;;17.60;51.70;;;;;;4951074;28;92874;-67
2022/04/30 00:51:13;;;;;;;14.20;9.00;;;17.60;51.70;;;;;;4950726;28;92997;-64
2022/04/30 00:53:43;;;;;;;15.07;9.95;;;17.60;52.80;;;;;;4951411;28;93010;-65
2022/04/30 00:56:11;;;;;;;14.45;8.45;;;17.60;51.70;;;;;;4949754;28;96352;-64
2022/04/30 00:58:40;;;;;;;12.80;8.77;;;17.60;52.80;;;;;;4950611;28;92610;-64
2022/04/30 01:01:06;;;;;;;13.68;8.38;;;17.60;51.80;;;;;;4950491;28;93024;-64
2022/04/30 01:03:31;;;;;;;13.73;8.80;;;17.60;51.80;;;;;;4950788;28;92938;-65
2022/04/30 01:05:59;;;;;;;12.32;8.38;;;17.60;51.70;;;;;;4951175;28;93212;-65
2022/04/30 01:08:29;;;;;;;11.30;8.00;;;17.60;51.70;;;;;;4950758;28;95653;-64
2022/04/30 01:10:56;;;;;;;13.48;8.50;;;17.50;51.60;;;;;;4950237;28;92927;-65
2022/04/30 01:13:22;;;;;;;11.50;8.20;;;17.60;51.70;;;;;;4951245;28;91787;-65
2022/04/30 01:15:47;;;;;;;12.48;8.05;;;17.50;51.70;;;;;;4950890;28;94391;-64
2022/04/30 01:18:14;;;;;;;12.35;7.53;;;17.50;51.70;;;;;;4950778;28;95662;-64
2022/04/30 01:20:51;;;;;;;10.77;8.02;;;17.50;51.60;;;;;;4949310;28;94949;-64
2022/04/30 01:23:18;;;;;;;11.65;7.78;;;17.50;51.70;;;;;;4951768;28;92850;-65
2022/04/30 01:25:46;;;;;;;11.60;7.25;;;17.50;51.60;;;;;;4951318;28;94406;-64
2022/04/30 01:28:12;;;;;;;11.18;7.88;;;17.50;51.70;;;;;;4950827;28;92922;-64
2022/04/30 01:30:38;;;;;;;11.85;7.53;;;17.50;51.60;;;;;;4950168;28;92925;-65
2022/04/30 01:38:35;;;;;;;10.98;7.45;;;17.50;51.60;;;;;;4951434;28;92360;-64
2022/04/30 01:41:01;;;;;;;11.50;7.32;;;17.50;51.60;;;;;;4950447;28;94872;-65
2022/04/30 01:43:27;;;;;;;9.95;7.13;;;17.50;51.50;;;;;;4950099;28;92980;-65
2022/04/30 01:45:53;;;;;;;10.10;6.97;;;17.50;51.50;;;;;;4949206;28;96599;-64
2022/04/30 01:48:20;;;;;;;9.55;6.93;;;17.50;51.60;;;;;;4950559;28;95165;-65
2022/04/30 01:50:46;;;;;;;8.90;6.75;;;17.40;51.40;;;;;;4950291;28;92758;-65
2022/04/30 01:53:11;;;;;;;9.40;6.72;;;17.40;51.50;;;;;;4950718;28;92451;-65
2022/04/30 01:55:38;;;;;;;9.27;6.82;;;17.50;51.50;;;;;;4950009;28;94001;-65
2022/04/30 01:58:04;;;;;;;10.00;6.60;;;17.40;51.50;;;;;;4950302;28;92925;-65
2022/04/30 02:00:30;;;;;;;8.45;6.28;;;17.40;52.50;;;;;;4950404;28;92656;-66
2022/04/30 02:03:02;;;;;;;10.15;6.40;;;17.40;51.50;;;;;;4951475;28;91806;-65
2022/04/30 02:05:28;;;;;;;8.85;6.28;;;17.40;51.50;;;;;;4949681;28;93550;-66
2022/04/30 02:08:00;;;;;;;9.40;6.65;;;17.40;51.40;;;;;;4950396;28;92915;-65
2022/04/30 02:10:28;;;;;;;7.82;5.55;;;17.40;51.40;;;;;;4948952;28;95122;-65
2022/04/30 02:12:53;;;;;;;9.40;6.80;;;17.40;51.50;;;;;;4949847;28;92809;-65
2022/04/30 02:15:20;;;;;;;7.00;5.75;;;17.30;51.50;;;;;;4950160;28;94078;-64
2022/04/30 02:17:47;;;;;;;7.75;5.90;;;17.40;51.50;;;;;;4950542;28;94164;-65
2022/04/30 02:20:33;;;;;;;7.65;5.60;;;17.40;51.50;;;;;;4949781;28;92729;-65
2022/04/30 02:23:01;;;;;;;9.82;5.68;;;17.40;51.50;;;;;;4952024;28;92784;-65
2022/04/30 02:25:28;;;;;;;8.00;5.85;;;17.30;51.40;;;;;;4953067;28;94156;-65
2022/04/30 02:27:58;;;;;;;9.07;5.63;;;17.30;51.40;;;;;;4953976;28;94093;-65
2022/04/30 02:30:27;;;;;;;7.55;5.60;;;17.40;51.40;;;;;;4952983;28;92765;-65
2022/04/30 02:33:05;;;;;;;8.07;5.65;;;17.30;51.50;;;;;;4953546;28;92567;-65
2022/04/30 02:35:35;;;;;;;7.60;5.95;;;17.40;51.40;;;;;;4952004;28;96867;-65
2022/04/30 02:38:05;;;;;;;6.35;5.35;;;17.30;51.40;;;;;;4952851;28;95405;-65
2022/04/30 02:40:33;;;;;;;8.70;5.30;;;17.30;51.40;;;;;;4952632;28;92513;-65
2022/04/30 02:43:06;;;;;;;7.47;5.45;;;17.30;51.40;;;;;;4953296;28;92518;-65
2022/04/30 02:45:33;;;;;;;6.15;5.10;;;17.30;51.30;;;;;;4952338;28;94213;-65
2022/04/30 02:47:58;;;;;;;6.03;5.07;;;17.30;51.30;;;;;;4952891;28;93936;-65
2022/04/30 02:50:25;;;;;;;6.93;5.00;;;17.30;51.30;;;;;;4953183;28;93060;-65
2022/04/30 02:52:54;;;;;;;7.47;4.95;;;17.30;51.40;;;;;;4953942;28;91932;-65
2022/04/30 02:55:21;;;;;;;6.43;5.00;;;17.30;51.30;;;;;;4952263;28;94844;-64
2022/04/30 03:00:41;;;;;;;7.47;5.10;;;17.30;51.30;;;;;;4951578;28;95019;-65
2022/04/30 03:03:08;;;;;;;5.80;4.47;;;17.30;51.30;;;;;;4952659;28;92981;-65
2022/04/30 03:05:36;;;;;;;6.03;4.82;;;17.30;51.30;;;;;;4952673;28;94126;-65
2022/04/30 03:08:12;;;;;;;5.03;4.18;;;17.30;51.40;;;;;;4951808;28;94355;-65
2022/04/30 03:10:42;;;;;;;5.60;4.50;;;17.30;51.30;;;;;;4951576;28;92587;-65
2022/04/30 03:13:09;;;;;;;5.70;4.30;;;17.30;51.30;;;;;;4952796;28;92734;-65
2022/04/30 03:15:37;;;;;;;5.55;4.30;;;17.20;51.20;;;;;;4952750;28;93215;-65
2022/04/30 04:19:20;;;;;;;4.63;3.85;;;17.00;51.20;;;;;;4906349;22;101174;-69
2022/04/30 04:21:45;;;;;;;4.85;3.67;;;17.00;51.30;;;;;;4952049;28;92590;-65
2022/04/30 04:26:55;;;;;;;4.22;3.42;;;17.10;51.10;;;;;;4952043;28;94739;-65
2022/04/30 04:29:21;;;;;;;5.05;3.85;;;17.00;51.10;;;;;;4951548;28;93233;-65
2022/04/30 04:31:46;;;;;;;4.95;3.78;;;17.00;51.10;;;;;;4951169;28;92891;-65
2022/04/30 04:34:12;;;;;;;5.22;3.97;;;17.00;51.10;;;;;;4951218;28;94598;-65
2022/04/30 04:36:37;;;;;;;4.50;3.80;;;17.00;51.10;;;;;;4951144;28;104837;-67
2022/04/30 04:39:12;;;;;;;3.75;3.35;;;17.00;51.00;;;;;;4951938;28;93642;-70
2022/04/30 04:41:39;;;;;;;5.30;3.70;;;17.00;51.00;;;;;;4951595;28;92269;-65
2022/04/30 04:44:04;;;;;;;4.43;3.85;;;17.10;51.10;;;;;;4950901;28;94136;-66
2022/04/30 04:46:30;;;;;;;3.80;3.47;;;17.00;51.00;;;;;;4950433;28;92881;-66
2022/04/30 04:48:56;;;;;;;3.95;3.55;;;17.00;51.00;;;;;;4950271;28;95438;-66
2022/04/30 04:51:21;;;;;;;4.78;3.83;;;17.00;51.00;;;;;;4950704;28;92583;-65
2022/04/30 04:53:47;;;;;;;3.60;3.30;;;17.00;51.00;;;;;;4950410;28;96472;-65
2022/04/30 04:56:13;;;;;;;11.32;3.95;;;17.00;51.10;;;;;;4950322;28;93917;-63
2022/04/30 04:58:42;;;;;;;5.78;3.53;;;17.00;51.20;;;;;;4951340;28;93239;-64
2022/04/30 05:01:08;;;;;;;6.75;3.75;;;17.00;51.20;;;;;;4933626;28;92568;-64
2022/04/30 05:03:34;;;;;;;4.18;3.47;;;17.00;51.40;;;;;;4951002;28;97071;-65
2022/04/30 05:05:59;;;;;;;6.25;3.72;;;17.00;51.50;;;;;;4950826;28;94255;-63
2022/04/30 05:08:25;;;;;;;5.10;3.47;;;17.00;51.40;;;;;;4951344;28;92816;-63
2022/04/30 05:10:51;;;;;;;3.50;3.20;;;17.10;51.40;;;;;;4933363;28;92487;-64
2022/04/30 05:13:16;;;;;;;8.32;3.80;;;17.10;51.50;;;;;;4948795;28;95483;-64
2022/04/30 05:15:43;;;;;;;3.95;3.30;;;17.00;51.50;;;;;;4951278;28;103576;-64
2022/04/30 05:18:08;;;;;;;4.68;3.25;;;17.00;51.50;;;;;;4951417;28;92925;-63
2022/04/30 05:20:34;;;;;;;4.28;3.60;;;17.10;51.60;;;;;;4950630;28;93098;-67
2022/04/30 05:23:00;;;;;;;4.97;3.22;;;17.10;51.60;;;;;;4950454;28;94676;-63
2022/04/30 05:25:25;;;;;;;6.30;3.80;;;17.10;51.50;;;;;;4950426;28;103439;-64
2022/04/30 05:27:52;;;;;;;4.43;3.40;;;17.10;51.50;;;;;;4951170;28;92466;-65
2022/04/30 05:30:17;;;;;;;4.45;3.30;;;17.10;51.50;;;;;;4951466;28;91857;-66
2022/04/30 05:32:43;;;;;;;4.30;3.33;;;17.10;51.50;;;;;;4950892;28;93239;-64
2022/04/30 05:35:10;;;;;;;5.10;3.33;;;17.10;51.50;;;;;;4951010;28;94139;-64
2022/04/30 05:37:36;;;;;;;3.95;3.35;;;17.10;51.40;;;;;;4949039;28;95035;-65
2022/04/30 05:40:02;;;;;;;4.40;3.42;;;17.10;51.50;;;;;;4950521;28;92598;-64
2022/04/30 05:42:27;;;;;;;4.07;3.38;;;17.10;51.60;;;;;;4950781;28;94269;-64
2022/04/30 05:44:53;;;;;;;3.78;3.20;;;17.10;51.80;;;;;;4951143;28;100204;-64
2022/04/30 05:47:19;;;;;;;3.70;3.00;;;17.10;51.80;;;;;;4950372;28;92563;-64
2022/04/30 05:49:45;;;;;;;3.88;2.90;;;17.10;51.90;;;;;;4951382;28;93152;-63
2022/04/30 05:52:11;;;;;;;7.03;3.30;;;17.10;51.80;;;;;;4950682;28;94206;-63
2022/04/30 05:54:37;;;;;;;8.90;3.25;;;17.10;51.90;;;;;;4950738;28;93893;-64
2022/04/30 05:57:03;;;;;;;4.70;3.08;;;17.10;52.00;;;;;;4953973;28;92698;-63
2022/04/30 05:59:29;;;;;;;4.22;3.20;;;17.10;52.30;;;;;;4957142;28;93114;-64
2022/04/30 06:01:55;;;;;;;5.25;2.95;;;17.20;52.30;;;;;;4955205;28;96454;-63
2022/04/30 06:04:21;;;;;;;4.90;3.30;;;17.20;52.60;;;;;;4957286;28;95047;-64
2022/04/30 06:06:47;;;;;;;3.85;3.30;;;17.20;53.10;;;;;;4956422;28;92660;-66
2022/04/30 06:09:14;;;;;;;4.35;3.15;;;17.30;53.30;;;;;;4956947;28;92538;-64
2022/04/30 06:11:40;;;;;;;8.10;2.97;;;17.40;53.10;;;;;;4957049;28;94970;-64
2022/04/30 06:14:06;;;;;;;4.90;2.88;;;17.50;53.10;;;;;;4956368;28;94360;-66
2022/04/30 06:16:32;;;;;;;4.22;3.00;;;17.60;53.30;;;;;;4957016;28;92961;-64
2022/04/30 06:18:57;;;;;;;5.90;2.75;;;17.60;52.70;;;;;;4956526;28;91766;-65
2022/04/30 06:21:24;;;;;;;4.88;2.70;;;17.70;53.20;;;;;;4956127;28;102327;-64
2022/04/30 06:23:53;;;;;;;3.05;2.55;;;17.80;53.00;;;;;;4955979;28;94317;-64
2022/04/30 06:26:18;;;;;;;5.53;2.53;;;17.90;52.70;;;;;;4955774;28;95270;-64
2022/04/30 06:28:44;;;;;;;4.07;2.75;;;18.00;52.60;;;;;;4956784;28;92678;-64
2022/04/30 06:31:09;;;;;;;3.80;2.60;;;18.00;52.10;;;;;;4955600;28;94245;-64
2022/04/30 06:33:35;;;;;;;3.42;2.50;;;18.10;52.20;;;;;;4955807;28;94217;-66
2022/04/30 06:36:01;;;;;;;5.55;2.63;;;18.10;52.00;;;;;;4956513;28;99414;-66
2022/04/30 06:38:27;;;;;;;3.05;2.58;;;18.20;52.00;;;;;;4955981;28;94254;-66
2022/04/30 06:40:53;;;;;;;3.97;2.70;;;18.20;51.80;;;;;;4956350;28;94632;-65
2022/04/30 06:43:18;;;;;;;3.70;2.42;;;18.20;51.70;;;;;;4956927;28;93941;-66
2022/04/30 06:45:44;;;;;;;4.15;2.65;;;18.20;51.90;;;;;;4956405;28;93233;-66
2022/04/30 06:48:10;;;;;;;15.27;2.63;;;18.20;51.90;;;;;;4955975;28;92898;-66
2022/04/30 06:50:36;;;;;;;2.63;2.30;;;18.30;52.20;;;;;;4954833;28;96335;-69
2022/04/30 06:58:40;;;;;;;2.97;2.28;;;18.30;52.20;;;;;;4956676;28;92936;-66
2022/04/30 07:01:26;;;;;;;5.03;2.45;;;18.30;52.20;;;;;;4955753;28;93787;-66
2022/04/30 07:03:55;;;;;;;3.55;2.30;;;18.40;52.60;;;;;;4956188;28;94256;-66
2022/04/30 07:06:21;;;;;;;2.33;2.13;;;18.40;52.40;;;;;;4956514;28;92590;-64
2022/04/30 07:08:47;;;;;;;4.97;2.22;;;18.40;52.50;;;;;;4953576;28;92308;-64
2022/04/30 07:11:13;;;;;;;6.75;2.33;;;18.40;52.20;;;;;;4953284;28;94334;-65
2022/04/30 07:13:39;;;;;;;4.32;2.38;;;18.40;52.50;;;;;;4952687;28;95969;-65
2022/04/30 07:16:04;;;;;;;17.83;2.83;;;18.50;52.40;;;;;;4951643;28;95450;-64
2022/04/30 07:18:30;;;;;;;5.25;2.30;;;18.50;52.40;;;;;;4951115;28;92562;-63
2022/04/30 07:20:56;;;;;;;3.17;2.08;;;18.50;52.00;;;;;;4952123;28;97184;-63
2022/04/30 07:23:21;;;;;;;5.13;2.10;;;18.50;51.80;;;;;;4951915;28;93317;-63
2022/04/30 07:25:48;;;;;;;4.25;2.28;;;18.50;51.50;;;;;;4953145;28;92491;-64
2022/04/30 07:28:14;;;;;;;6.15;2.40;;;18.50;51.70;;;;;;4952683;28;92791;-63
2022/04/30 07:30:41;;;;;;;9.13;2.90;;;18.50;52.20;;;;;;4951599;28;94177;-65
2022/04/30 07:33:06;;;;;;;6.40;2.53;;;18.50;52.80;;;;;;4952847;28;93896;-63
2022/04/30 07:35:32;;;;;;;7.28;2.60;;;18.60;53.20;;;;;;4952310;28;93060;-63
2022/04/30 07:37:58;;;;;;;8.10;2.50;;;18.60;53.40;;;;;;4952393;28;92775;-64
2022/04/30 07:40:24;;;;;;;6.13;2.80;;;18.60;53.70;;;;;;4951531;28;96658;-64
2022/04/30 07:42:50;;;;;;;6.32;2.55;;;18.60;53.90;;;;;;4952109;28;97578;-64
2022/04/30 07:45:16;;;;;;;7.43;2.58;;;18.60;54.10;;;;;;4951680;28;92621;-64
2022/04/30 07:47:42;;;;;;;13.52;2.85;;;18.60;54.20;;;;;;4951597;28;92946;-64
2022/04/30 07:50:07;;;;;;;12.32;3.15;;;18.70;54.50;;;;;;4951715;28;94267;-64
2022/04/30 07:52:33;;;;;;;5.63;2.78;;;18.60;54.60;;;;;;4951496;28;93980;-64
2022/04/30 07:55:02;;;;;;;10.52;2.95;;;18.70;54.90;;;;;;4952149;28;92695;-65
2022/04/30 07:57:28;;;;;;;9.38;3.10;;;18.70;55.10;;;;;;4952604;28;91786;-64
2022/04/30 07:59:55;;;;;;;11.48;2.45;;;18.70;55.40;;;;;;4952428;28;96647;-63
2022/04/30 08:02:21;;;;;;;8.63;2.47;;;18.70;55.50;;;;;;4951563;28;98266;-66
2022/04/30 08:04:46;;;;;;;8.20;2.60;;;18.70;55.80;;;;;;4950720;28;95384;-64
2022/04/30 08:07:12;;;;;;;5.13;2.30;;;18.70;55.80;;;;;;4952354;28;92611;-64
2022/04/30 08:09:37;;;;;;;5.95;2.47;;;18.70;55.80;;;;;;4951553;28;99568;-64
2022/04/30 08:12:03;;;;;;;6.20;2.28;;;18.70;55.70;;;;;;4951611;28;94224;-64
2022/04/30 08:14:29;;;;;;;8.55;2.40;;;18.70;55.70;;;;;;4951944;28;92921;-70
2022/04/30 08:16:55;;;;;;;11.70;2.60;;;18.70;55.70;;;;;;4952481;28;92668;-64
2022/04/30 08:19:20;;;;;;;8.52;2.40;;;18.70;55.80;;;;;;4950131;28;94057;-65
2022/04/30 08:21:48;;;;;;;6.22;2.40;;;18.60;55.70;;;;;;4950714;28;93932;-65
2022/04/30 08:24:14;;;;;;;9.18;2.63;;;18.70;56.10;;;;;;4951539;28;92864;-65
2022/04/30 08:26:44;;;;;;;5.20;2.55;;;18.70;56.00;;;;;;4950972;28;92843;-65
2022/04/30 08:29:10;;;;;;;6.22;2.58;;;18.70;55.70;;;;;;4948619;28;96709;-65
2022/04/30 08:31:35;;;;;;;5.35;2.28;;;18.70;55.50;;;;;;4949641;28;95982;-67
2022/04/30 08:34:02;;;;;;;5.07;2.67;;;18.70;55.30;;;;;;4950003;28;93951;-65
2022/04/30 08:36:27;;;;;;;9.80;2.92;;;18.70;55.10;;;;;;4949326;28;92626;-65
2022/04/30 08:38:53;;;;;;;6.88;2.53;;;18.70;55.00;;;;;;4950483;28;93049;-65
2022/04/30 08:41:18;;;;;;;7.60;2.60;;;18.70;55.90;;;;;;4950261;28;93850;-64
2022/04/30 08:43:48;;;;;;;5.63;2.25;;;18.70;54.90;;;;;;4951844;28;92954;-64
2022/04/30 08:46:17;;;;;;;7.57;2.45;;;18.70;54.70;;;;;;4951544;28;91899;-65
2022/04/30 08:48:45;;;;;;;6.15;2.50;;;18.80;54.60;;;;;;4950688;28;94511;-65
2022/04/30 08:51:11;;;;;;;6.43;2.28;;;18.80;54.50;;;;;;4950779;28;93869;-65
2022/04/30 08:53:37;;;;;;;7.22;2.65;;;18.80;54.40;;;;;;4950009;28;94980;-65
2022/04/30 08:56:07;;;;;;;5.15;2.53;;;18.90;54.30;;;;;;4951455;28;92872;-65
2022/04/30 08:58:33;;;;;;;4.70;2.30;;;18.90;54.20;;;;;;4951151;28;93171;-65
2022/04/30 09:01:01;;;;;;;4.70;2.35;;;18.90;54.10;;;;;;4950785;28;92912;-65
2022/04/30 09:03:27;;;;;;;4.30;2.25;;;19.00;54.00;;;;;;4951468;28;93028;-65
2022/04/30 09:05:58;;;;;;;4.25;2.13;;;19.00;54.80;;;;;;4950895;28;92804;-65
2022/04/30 09:08:23;;;;;;;3.50;2.00;;;19.10;53.80;;;;;;4950988;28;94405;-66
2022/04/30 09:10:50;;;;;;;6.75;2.08;;;19.10;53.70;;;;;;4952052;28;94124;-65
2022/04/30 09:13:17;;;;;;;4.60;2.47;;;19.10;53.60;;;;;;4951135;28;92555;-65
2022/04/30 09:15:46;;;;;;;3.45;2.20;;;19.10;53.50;;;;;;4951242;28;92866;-65
2022/04/30 09:18:15;;;;;;;5.28;2.38;;;19.10;53.50;;;;;;4949025;28;96725;-65
2022/04/30 09:20:49;;;;;;;4.97;2.17;;;19.10;53.50;;;;;;4951096;28;96379;-65
2022/04/30 09:23:31;;;;;;;3.88;2.05;;;19.10;53.50;;;;;;4951092;28;93102;-65
2022/04/30 09:25:58;;;;;;;5.47;2.25;;;19.10;53.40;;;;;;4949740;28;93019;-65
2022/04/30 09:28:29;;;;;;;5.38;2.13;;;19.10;53.40;;;;;;4950248;28;94379;-64
2022/04/30 09:31:20;;;;;;;4.80;2.00;;;19.10;53.40;;;;;;4949725;28;93171;-64
2022/04/30 09:33:57;;;;;;;5.72;2.25;;;19.20;53.30;;;;;;4950354;28;92499;-65
2022/04/30 09:39:15;;;;;;;3.63;2.03;;;19.20;53.20;;;;;;4950549;28;92778;-65
2022/04/30 09:41:41;;;;;;;4.03;2.10;;;19.20;53.20;;;;;;4950410;28;93599;-64
2022/04/30 09:44:12;;;;;;;4.15;2.03;;;19.20;53.20;;;;;;4949003;28;95323;-64
2022/04/30 09:46:40;;;;;;;3.25;1.80;;;19.20;54.20;;;;;;4950453;28;93100;-64
2022/04/30 09:54:40;;;;;;;4.03;1.88;;;19.30;53.10;;;;;;4949817;28;92619;-65
2022/04/30 09:57:07;;;;;;;2.80;2.00;;;19.30;52.90;;;;;;4949967;28;92586;-65
2022/04/30 09:59:38;;;;;;;2.92;2.00;;;19.30;52.90;;;;;;4949186;28;94860;-66
2022/04/30 10:02:06;;;;;;;2.50;1.70;;;19.40;52.80;;;;;;4950208;28;93913;-64
2022/04/30 10:04:33;;;;;;;4.05;1.90;;;19.40;52.80;;;;;;4949268;28;93109;-64
2022/04/30 10:07:00;;;;;;;2.35;1.70;;;19.40;52.80;;;;;;4950176;28;92975;-65
2022/04/30 10:09:42;;;;;;;2.53;1.88;;;19.50;52.70;;;;;;4948325;28;97745;-64
2022/04/30 10:12:16;;;;;;;4.05;2.10;;;19.50;52.60;;;;;;4950140;28;96391;-65
2022/04/30 10:14:48;;;;;;;2.72;1.95;;;19.40;52.60;;;;;;4949566;28;93105;-64
2022/04/30 10:17:23;;;;;;;2.00;1.80;;;19.40;52.60;;;;;;4950886;28;93031;-65
2022/04/30 10:19:59;;;;;;;3.63;2.30;;;19.40;52.60;;;;;;4948632;28;94804;-65
2022/04/30 10:22:26;;;;;;;3.90;2.05;;;19.40;52.60;;;;;;4950119;28;94031;-64
2022/04/30 10:24:59;;;;;;;1.63;1.52;;;19.40;52.60;;;;;;4950812;28;92489;-64
2022/04/30 10:27:37;;;;;;;2.20;1.50;;;19.40;52.60;;;;;;4950686;28;91987;-64
2022/04/30 10:30:05;;;;;;;2.67;1.90;;;19.30;52.70;;;;;;4950739;28;94516;-63
2022/04/30 10:32:35;;;;;;;1.90;1.70;;;19.30;52.70;;;;;;4949575;28;93967;-64
2022/04/30 10:35:03;;;;;;;2.80;1.90;;;19.30;52.80;;;;;;4949560;28;95310;-64
2022/04/30 10:37:34;;;;;;;3.78;1.88;;;19.20;52.70;;;;;;4950493;28;92732;-64
2022/04/30 10:40:03;;;;;;;3.17;1.80;;;19.20;52.80;;;;;;4950566;28;94321;-64
2022/04/30 10:42:45;;;;;;;3.55;1.95;;;19.20;52.90;;;;;;4949501;28;93329;-64
2022/04/30 10:45:16;;;;;;;2.07;1.80;;;19.20;52.90;;;;;;4953174;28;92684;-65
2022/04/30 10:47:55;;;;;;;3.00;1.95;;;19.10;53.00;;;;;;4953127;28;93097;-67
2022/04/30 10:50:22;;;;;;;2.55;1.60;;;19.00;52.90;;;;;;4953506;28;94142;-65
2022/04/30 10:52:49;;;;;;;2.78;1.80;;;19.00;53.00;;;;;;4953820;28;94090;-65
2022/04/30 10:55:16;;;;;;;2.55;1.70;;;19.00;53.00;;;;;;4953163;28;92789;-65
2022/04/30 10:57:43;;;;;;;1.58;1.48;;;18.90;53.10;;;;;;4953598;28;92515;-65
2022/04/30 11:00:10;;;;;;;2.53;1.85;;;18.90;53.10;;;;;;4951869;28;96819;-64
2022/04/30 11:02:36;;;;;;;1.98;1.50;;;18.90;53.10;;;;;;4952556;28;95293;-63
2022/04/30 11:05:02;;;;;;;2.67;1.90;;;18.90;53.20;;;;;;4952758;28;92648;-64
2022/04/30 11:07:30;;;;;;;2.03;1.70;;;18.80;53.10;;;;;;4953723;28;92882;-64
2022/04/30 11:09:56;;;;;;;3.58;1.70;;;18.90;53.20;;;;;;4952909;28;96314;-64
2022/04/30 11:12:33;;;;;;;2.58;1.83;;;18.80;53.20;;;;;;4953289;28;94259;-64
2022/04/30 11:14:59;;;;;;;2.72;2.00;;;18.80;53.20;;;;;;4953005;28;92593;-64
2022/04/30 11:17:25;;;;;;;2.47;1.95;;;18.80;53.30;;;;;;4952709;28;91912;-65
2022/04/30 11:19:55;;;;;;;3.03;1.85;;;18.70;53.20;;;;;;4952853;28;94220;-64
2022/04/30 11:22:21;;;;;;;2.33;1.70;;;18.70;53.10;;;;;;4952522;28;94509;-65
2022/04/30 11:24:46;;;;;;;2.88;1.73;;;18.70;53.20;;;;;;4951797;28;94908;-64
2022/04/30 11:27:14;;;;;;;2.83;1.80;;;18.70;53.10;;;;;;4935278;28;94086;-64
2022/04/30 11:29:51;;;;;;;1.60;1.50;;;18.70;53.20;;;;;;4952344;28;94654;-64
2022/04/30 11:32:28;;;;;;;3.22;1.58;;;18.70;53.10;;;;;;4952602;28;92975;-64
2022/04/30 11:35:01;;;;;;;2.35;1.60;;;18.70;53.20;;;;;;4953796;28;92506;-64
2022/04/30 11:37:36;;;;;;;2.70;1.73;;;18.70;53.20;;;;;;4952562;28;92617;-64
2022/04/30 11:40:06;;;;;;;2.15;1.80;;;18.60;53.20;;;;;;4953133;28;93172;-64
2022/04/30 11:42:31;;;;;;;2.53;1.77;;;18.60;53.20;;;;;;4951644;28;94200;-64
2022/04/30 11:44:57;;;;;;;3.05;1.58;;;18.60;53.20;;;;;;4952973;28;92583;-63
2022/04/30 11:47:22;;;;;;;2.65;1.40;;;18.60;53.20;;;;;;4951504;28;93489;-64
2022/04/30 11:49:48;;;;;;;1.80;1.55;;;18.60;53.20;;;;;;4951168;28;96495;-64
2022/04/30 11:52:15;;;;;;;2.65;1.80;;;18.60;53.30;;;;;;4953105;28;97054;-64
2022/04/30 11:54:41;;;;;;;1.60;1.50;;;18.60;53.20;;;;;;4952004;28;93040;-64
2022/04/30 11:57:14;;;;;;;2.80;1.73;;;18.50;53.30;;;;;;4951791;28;93052;-64
2022/04/30 11:59:40;;;;;;;2.17;1.50;;;18.60;53.20;;;;;;4951936;28;94619;-64
2022/04/30 12:02:09;;;;;;;1.88;1.45;;;18.60;53.30;;;;;;4952484;28;94410;-64
2022/04/30 12:04:36;;;;;;;2.72;1.55;;;18.50;53.30;;;;;;4951741;28;92539;-64
2022/04/30 12:07:05;;;;;;;2.05;1.52;;;18.50;53.30;;;;;;4952951;28;91976;-64
2022/04/30 12:09:33;;;;;;;2.03;1.55;;;18.50;53.30;;;;;;4951234;28;95163;-68
2022/04/30 12:12:00;;;;;;;1.85;1.67;;;18.50;53.30;;;;;;4952275;28;92884;-65
2022/04/30 12:14:26;;;;;;;1.90;1.70;;;18.50;53.30;;;;;;4950422;28;95439;-65
2022/04/30 12:16:52;;;;;;;1.90;1.70;;;18.50;53.30;;;;;;4951459;28;92970;-65
2022/04/30 12:25:06;;;;;;;2.33;1.73;;;18.50;53.30;;;;;;4951253;28;93089;-65
2022/04/30 12:27:32;;;;;;;2.72;1.83;;;18.40;53.30;;;;;;4951622;28;92606;-65
2022/04/30 12:30:06;;;;;;;1.60;1.50;;;18.40;53.20;;;;;;4951898;28;93906;-65
2022/04/30 12:32:33;;;;;;;2.10;1.60;;;18.40;53.20;;;;;;4952096;28;94283;-65
2022/04/30 12:34:59;;;;;;;2.35;1.60;;;18.40;53.20;;;;;;4951317;28;92616;-65
2022/04/30 12:37:34;;;;;;;2.00;1.60;;;18.40;53.30;;;;;;4951630;28;92631;-65
2022/04/30 12:40:01;;;;;;;1.88;1.58;;;18.40;53.20;;;;;;4949678;28;96632;-64
2022/04/30 12:42:27;;;;;;;2.17;1.80;;;18.30;53.20;;;;;;4951467;28;96148;-65
2022/04/30 12:44:53;;;;;;;1.98;1.77;;;18.30;53.20;;;;;;4951569;28;92998;-65
2022/04/30 12:47:18;;;;;;;3.00;1.75;;;18.30;53.20;;;;;;4952222;28;92794;-65
2022/04/30 12:49:44;;;;;;;2.33;1.60;;;18.30;53.10;;;;;;4950844;28;94553;-65
2022/04/30 12:52:10;;;;;;;3.05;1.73;;;18.30;53.10;;;;;;4951214;28;94824;-64
2022/04/30 12:54:36;;;;;;;2.33;1.70;;;18.30;53.20;;;;;;4951030;28;92907;-65
2022/04/30 12:57:07;;;;;;;2.60;1.60;;;18.30;53.20;;;;;;4951330;28;91806;-65
2022/04/30 12:59:33;;;;;;;2.42;2.05;;;18.20;53.10;;;;;;4950076;28;94688;-64
2022/04/30 13:01:59;;;;;;;2.15;1.52;;;18.30;53.20;;;;;;4950703;28;94253;-65
2022/04/30 13:04:24;;;;;;;1.67;1.58;;;18.20;53.20;;;;;;4949932;28;95422;-64
2022/04/30 13:06:51;;;;;;;2.13;1.75;;;18.20;53.10;;;;;;4950352;28;93503;-65
2022/04/30 13:14:45;;;;;;;2.10;1.90;;;18.20;53.10;;;;;;4950563;28;93069;-64
2022/04/30 13:17:11;;;;;;;2.22;1.92;;;18.20;53.10;;;;;;4951625;28;92948;-63
2022/04/30 13:19:39;;;;;;;2.10;1.90;;;18.20;53.10;;;;;;4949831;28;94553;-64
2022/04/30 13:22:05;;;;;;;2.20;1.65;;;18.10;53.00;;;;;;4952048;28;93413;-64
2022/04/30 13:24:33;;;;;;;3.42;2.08;;;18.10;53.00;;;;;;4950826;28;92514;-64
2022/04/30 13:26:58;;;;;;;2.13;1.80;;;18.10;54.00;;;;;;4951758;28;92779;-63
2022/04/30 13:29:24;;;;;;;3.28;2.20;;;18.10;52.90;;;;;;4949341;28;96684;-64
2022/04/30 13:31:50;;;;;;;2.53;2.10;;;18.10;53.00;;;;;;4951408;28;96523;-64
2022/04/30 13:34:15;;;;;;;2.75;2.10;;;18.10;52.90;;;;;;4951271;28;92869;-64
2022/04/30 13:36:41;;;;;;;2.53;2.13;;;18.10;52.90;;;;;;4950981;28;93104;-65
2022/04/30 13:39:07;;;;;;;2.90;2.17;;;18.10;53.00;;;;;;4951040;28;94177;-64
2022/04/30 13:41:32;;;;;;;2.88;2.10;;;18.10;52.90;;;;;;4950326;28;103355;-66
2022/04/30 13:43:58;;;;;;;2.72;2.08;;;18.10;53.00;;;;;;4951591;28;93101;-65
2022/04/30 13:46:24;;;;;;;4.30;2.30;;;18.00;52.80;;;;;;4951117;28;94397;-65
2022/04/30 13:48:50;;;;;;;2.92;2.13;;;18.00;52.80;;;;;;4950765;28;94506;-64
2022/04/30 13:51:18;;;;;;;2.38;2.17;;;18.00;52.90;;;;;;4950773;28;93351;-64
2022/04/30 13:53:44;;;;;;;3.25;1.83;;;18.00;52.90;;;;;;4950118;28;95280;-63
2022/04/30 13:56:10;;;;;;;3.90;2.00;;;18.00;52.90;;;;;;4951405;28;93534;-64
2022/04/30 13:58:36;;;;;;;3.00;1.80;;;18.10;52.90;;;;;;4950515;28;94689;-63
2022/04/30 14:01:02;;;;;;;4.68;2.10;;;18.20;52.80;;;;;;4950732;28;93971;-64
2022/04/30 14:03:28;;;;;;;3.63;2.08;;;18.30;52.80;;;;;;4951182;28;92506;-64
2022/04/30 14:05:54;;;;;;;3.65;1.88;;;18.40;52.60;;;;;;4951599;28;92614;-64
2022/04/30 14:08:20;;;;;;;4.78;1.80;;;18.50;52.60;;;;;;4951025;28;94241;-64
2022/04/30 14:10:46;;;;;;;3.33;1.73;;;18.60;52.50;;;;;;4951863;28;93658;-65
2022/04/30 14:15:56;;;;;;;4.28;1.90;;;18.80;52.30;;;;;;4951095;28;93000;-64
2022/04/30 14:18:25;;;;;;;6.07;2.28;;;18.90;52.10;;;;;;4949577;28;96040;-64
2022/04/30 14:20:53;;;;;;;6.40;2.70;;;19.00;52.10;;;;;;4952920;28;96562;-66
2022/04/30 14:23:18;;;;;;;7.40;3.25;;;19.10;52.20;;;;;;4954301;28;92966;-64
2022/04/30 14:25:44;;;;;;;8.10;3.33;;;19.10;52.10;;;;;;4936479;28;93480;-64
2022/04/30 14:28:13;;;;;;;11.55;3.78;;;19.20;52.10;;;;;;4935917;28;93837;-65